sensor_id;sensor_type;location;lat;lon;timestamp;P1;durP1;ratioP1;P2;durP2;ratioP2
14092;SDS011;7123;49.468;10.992;2022-08-21T00:01:41;4.82;;;4.35;;
14092;SDS011;7123;49.468;10.992;2022-08-21T00:04:08;4.80;;;4.43;;
14092;SDS011;7123;49.468;10.992;2022-08-21T00:06:39;5.07;;;4.60;;
14092;SDS011;7123;49.468;10.992;2022-08-21T00:09:07;4.85;;;4.38;;
14092;SDS011;7123;49.468;10.992;2022-08-21T00:11:35;4.38;;;4.00;;
14092;SDS011;7123;49.468;10.992;2022-08-21T00:14:03;4.30;;;4.00;;
14092;SDS011;7123;49.468;10.992;2022-08-21T00:16:32;4.47;;;4.07;;
14092;SDS011;7123;49.468;10.992;2022-08-21T00:18:59;4.30;;;4.00;;
14092;SDS011;7123;49.468;10.992;2022-08-21T00:21:26;4.40;;;4.10;;
14092;SDS011;7123;49.468;10.992;2022-08-21T00:23:53;4.40;;;4.10;;
14092;SDS011;7123;49.468;10.992;2022-08-21T00:26:20;4.90;;;4.40;;
14092;SDS011;7123;49.468;10.992;2022-08-21T00:28:46;4.18;;;3.83;;
14092;SDS011;7123;49.468;10.992;2022-08-21T00:31:15;4.57;;;4.18;;
14092;SDS011;7123;49.468;10.992;2022-08-21T00:33:42;4.60;;;4.20;;
14092;SDS011;7123;49.468;10.992;2022-08-21T00:36:09;4.97;;;4.57;;
14092;SDS011;7123;49.468;10.992;2022-08-21T00:38:36;5.00;;;4.60;;
14092;SDS011;7123;49.468;10.992;2022-08-21T00:41:04;5.30;;;4.80;;
14092;SDS011;7123;49.468;10.992;2022-08-21T00:43:53;6.03;;;5.53;;
14092;SDS011;7123;49.468;10.992;2022-08-21T00:46:20;7.55;;;5.72;;
14092;SDS011;7123;49.468;10.992;2022-08-21T00:48:53;8.17;;;6.80;;
14092;SDS011;7123;49.468;10.992;2022-08-21T00:51:47;5.63;;;5.13;;
14092;SDS011;7123;49.468;10.992;2022-08-21T00:54:16;4.90;;;4.40;;
14092;SDS011;7123;49.468;10.992;2022-08-21T00:56:46;4.33;;;3.83;;
14092;SDS011;7123;49.468;10.992;2022-08-21T00:59:17;5.83;;;4.60;;
14092;SDS011;7123;49.468;10.992;2022-08-21T01:01:46;6.17;;;5.60;;
14092;SDS011;7123;49.468;10.992;2022-08-21T01:04:13;6.88;;;6.13;;
14092;SDS011;7123;49.468;10.992;2022-08-21T01:06:41;7.43;;;4.57;;
14092;SDS011;7123;49.468;10.992;2022-08-21T01:09:08;5.67;;;5.10;;
14092;SDS011;7123;49.468;10.992;2022-08-21T01:11:36;7.13;;;4.60;;
14092;SDS011;7123;49.468;10.992;2022-08-21T01:14:02;6.23;;;5.13;;
14092;SDS011;7123;49.468;10.992;2022-08-21T01:16:29;5.27;;;4.77;;
14092;SDS011;7123;49.468;10.992;2022-08-21T01:18:56;5.53;;;4.90;;
14092;SDS011;7123;49.468;10.992;2022-08-21T01:21:24;5.07;;;4.67;;
14092;SDS011;7123;49.468;10.992;2022-08-21T01:23:54;5.40;;;4.90;;
14092;SDS011;7123;49.468;10.992;2022-08-21T01:26:23;5.43;;;4.87;;
14092;SDS011;7123;49.468;10.992;2022-08-21T01:31:31;5.83;;;5.17;;
14092;SDS011;7123;49.468;10.992;2022-08-21T01:33:59;5.17;;;4.77;;
14092;SDS011;7123;49.468;10.992;2022-08-21T01:36:26;5.10;;;4.67;;
14092;SDS011;7123;49.468;10.992;2022-08-21T01:38:53;5.20;;;4.80;;
14092;SDS011;7123;49.468;10.992;2022-08-21T01:41:20;5.23;;;4.70;;
14092;SDS011;7123;49.468;10.992;2022-08-21T01:43:47;6.68;;;4.93;;
14092;SDS011;7123;49.468;10.992;2022-08-21T01:46:14;4.87;;;4.47;;
14092;SDS011;7123;49.468;10.992;2022-08-21T01:48:41;5.90;;;4.82;;
14092;SDS011;7123;49.468;10.992;2022-08-21T01:51:08;5.33;;;4.93;;
14092;SDS011;7123;49.468;10.992;2022-08-21T01:53:35;5.70;;;5.20;;
14092;SDS011;7123;49.468;10.992;2022-08-21T01:56:04;5.78;;;5.38;;
14092;SDS011;7123;49.468;10.992;2022-08-21T01:58:38;5.70;;;5.20;;
14092;SDS011;7123;49.468;10.992;2022-08-21T02:01:06;7.97;;;5.87;;
14092;SDS011;7123;49.468;10.992;2022-08-21T02:03:32;6.77;;;6.17;;
14092;SDS011;7123;49.468;10.992;2022-08-21T02:06:01;5.60;;;5.20;;
14092;SDS011;7123;49.468;10.992;2022-08-21T02:08:33;7.67;;;5.60;;
14092;SDS011;7123;49.468;10.992;2022-08-21T02:10:59;6.00;;;4.93;;
14092;SDS011;7123;49.468;10.992;2022-08-21T02:13:26;6.33;;;4.73;;
14092;SDS011;7123;49.468;10.992;2022-08-21T02:15:53;4.60;;;4.30;;
14092;SDS011;7123;49.468;10.992;2022-08-21T02:18:20;5.68;;;5.07;;
14092;SDS011;7123;49.468;10.992;2022-08-21T02:20:47;6.13;;;4.53;;
14092;SDS011;7123;49.468;10.992;2022-08-21T02:23:21;6.73;;;4.93;;
14092;SDS011;7123;49.468;10.992;2022-08-21T02:25:53;5.35;;;4.90;;
14092;SDS011;7123;49.468;10.992;2022-08-21T02:28:22;6.20;;;5.67;;
14092;SDS011;7123;49.468;10.992;2022-08-21T02:30:50;8.02;;;6.45;;
14092;SDS011;7123;49.468;10.992;2022-08-21T02:33:18;7.40;;;6.67;;
14092;SDS011;7123;49.468;10.992;2022-08-21T02:35:45;7.60;;;6.20;;
14092;SDS011;7123;49.468;10.992;2022-08-21T02:38:14;14.33;;;6.30;;
14092;SDS011;7123;49.468;10.992;2022-08-21T02:40:43;6.53;;;5.40;;
14092;SDS011;7123;49.468;10.992;2022-08-21T02:43:16;9.23;;;7.10;;
14092;SDS011;7123;49.468;10.992;2022-08-21T02:45:45;11.73;;;6.93;;
14092;SDS011;7123;49.468;10.992;2022-08-21T02:48:14;26.17;;;8.77;;
14092;SDS011;7123;49.468;10.992;2022-08-21T02:50:44;7.43;;;6.00;;
14092;SDS011;7123;49.468;10.992;2022-08-21T02:53:18;9.93;;;6.40;;
14092;SDS011;7123;49.468;10.992;2022-08-21T02:55:47;7.27;;;6.30;;
14092;SDS011;7123;49.468;10.992;2022-08-21T02:58:16;5.97;;;5.47;;
14092;SDS011;7123;49.468;10.992;2022-08-21T03:00:45;9.53;;;6.23;;
14092;SDS011;7123;49.468;10.992;2022-08-21T03:03:12;7.10;;;6.40;;
14092;SDS011;7123;49.468;10.992;2022-08-21T03:05:40;6.20;;;5.60;;
14092;SDS011;7123;49.468;10.992;2022-08-21T03:08:10;7.57;;;6.13;;
14092;SDS011;7123;49.468;10.992;2022-08-21T03:10:41;6.57;;;5.87;;
14092;SDS011;7123;49.468;10.992;2022-08-21T03:13:09;7.07;;;6.37;;
14092;SDS011;7123;49.468;10.992;2022-08-21T03:15:36;8.53;;;7.30;;
14092;SDS011;7123;49.468;10.992;2022-08-21T03:18:03;6.90;;;6.30;;
14092;SDS011;7123;49.468;10.992;2022-08-21T03:20:31;9.20;;;6.97;;
14092;SDS011;7123;49.468;10.992;2022-08-21T03:22:58;28.57;;;9.93;;
14092;SDS011;7123;49.468;10.992;2022-08-21T03:25:27;31.03;;;9.27;;
14092;SDS011;7123;49.468;10.992;2022-08-21T03:28:06;32.03;;;9.10;;
14092;SDS011;7123;49.468;10.992;2022-08-21T03:30:38;86.47;;;10.27;;
14092;SDS011;7123;49.468;10.992;2022-08-21T03:33:05;30.50;;;8.83;;
14092;SDS011;7123;49.468;10.992;2022-08-21T03:35:31;54.87;;;10.20;;
14092;SDS011;7123;49.468;10.992;2022-08-21T03:37:58;111.27;;;10.40;;
14092;SDS011;7123;49.468;10.992;2022-08-21T03:40:25;31.93;;;7.23;;
14092;SDS011;7123;49.468;10.992;2022-08-21T03:42:52;6.03;;;5.43;;
14092;SDS011;7123;49.468;10.992;2022-08-21T03:45:19;7.47;;;6.07;;
14092;SDS011;7123;49.468;10.992;2022-08-21T03:47:54;5.80;;;5.30;;
14092;SDS011;7123;49.468;10.992;2022-08-21T03:50:27;7.50;;;5.73;;
14092;SDS011;7123;49.468;10.992;2022-08-21T03:52:59;11.97;;;5.50;;
14092;SDS011;7123;49.468;10.992;2022-08-21T03:55:26;38.27;;;7.23;;
14092;SDS011;7123;49.468;10.992;2022-08-21T03:57:53;5.30;;;4.90;;
14092;SDS011;7123;49.468;10.992;2022-08-21T04:00:20;5.50;;;5.00;;
14092;SDS011;7123;49.468;10.992;2022-08-21T04:02:47;7.03;;;6.27;;
14092;SDS011;7123;49.468;10.992;2022-08-21T04:05:16;5.63;;;4.20;;
14092;SDS011;7123;49.468;10.992;2022-08-21T04:07:54;4.47;;;4.10;;
14092;SDS011;7123;49.468;10.992;2022-08-21T04:10:22;5.17;;;4.77;;
14092;SDS011;7123;49.468;10.992;2022-08-21T04:12:51;5.30;;;4.73;;
14092;SDS011;7123;49.468;10.992;2022-08-21T04:15:19;5.03;;;4.60;;
14092;SDS011;7123;49.468;10.992;2022-08-21T04:17:47;4.70;;;4.40;;
14092;SDS011;7123;49.468;10.992;2022-08-21T04:20:15;5.33;;;4.80;;
14092;SDS011;7123;49.468;10.992;2022-08-21T04:22:43;4.87;;;4.30;;
14092;SDS011;7123;49.468;10.992;2022-08-21T04:25:10;5.13;;;4.83;;
14092;SDS011;7123;49.468;10.992;2022-08-21T04:27:38;5.07;;;4.73;;
14092;SDS011;7123;49.468;10.992;2022-08-21T04:30:06;4.93;;;4.53;;
14092;SDS011;7123;49.468;10.992;2022-08-21T04:32:35;5.00;;;4.60;;
14092;SDS011;7123;49.468;10.992;2022-08-21T04:35:05;5.43;;;5.03;;
14092;SDS011;7123;49.468;10.992;2022-08-21T04:37:35;6.07;;;5.53;;
14092;SDS011;7123;49.468;10.992;2022-08-21T04:40:07;6.83;;;5.20;;
14092;SDS011;7123;49.468;10.992;2022-08-21T04:42:40;6.87;;;5.77;;
14092;SDS011;7123;49.468;10.992;2022-08-21T04:45:20;26.67;;;5.97;;
14092;SDS011;7123;49.468;10.992;2022-08-21T04:47:51;22.03;;;6.17;;
14092;SDS011;7123;49.468;10.992;2022-08-21T04:50:20;42.20;;;8.00;;
14092;SDS011;7123;49.468;10.992;2022-08-21T04:52:50;13.70;;;5.53;;
14092;SDS011;7123;49.468;10.992;2022-08-21T04:55:17;17.03;;;5.60;;
14092;SDS011;7123;49.468;10.992;2022-08-21T04:57:45;5.27;;;4.77;;
14092;SDS011;7123;49.468;10.992;2022-08-21T05:00:15;4.37;;;4.17;;
14092;SDS011;7123;49.468;10.992;2022-08-21T05:02:44;4.13;;;3.83;;
14092;SDS011;7123;49.468;10.992;2022-08-21T05:05:13;4.77;;;4.47;;
14092;SDS011;7123;49.468;10.992;2022-08-21T05:07:41;6.07;;;4.30;;
14092;SDS011;7123;49.468;10.992;2022-08-21T05:10:10;4.13;;;3.93;;
14092;SDS011;7123;49.468;10.992;2022-08-21T05:12:40;5.80;;;4.13;;
14092;SDS011;7123;49.468;10.992;2022-08-21T05:15:09;5.30;;;4.77;;
14092;SDS011;7123;49.468;10.992;2022-08-21T05:17:39;4.43;;;4.13;;
14092;SDS011;7123;49.468;10.992;2022-08-21T05:20:18;4.27;;;3.87;;
14092;SDS011;7123;49.468;10.992;2022-08-21T05:22:45;6.50;;;5.20;;
14092;SDS011;7123;49.468;10.992;2022-08-21T05:25:12;4.93;;;4.50;;
14092;SDS011;7123;49.468;10.992;2022-08-21T05:27:39;5.87;;;5.47;;
14092;SDS011;7123;49.468;10.992;2022-08-21T05:30:08;16.07;;;5.93;;
14092;SDS011;7123;49.468;10.992;2022-08-21T05:32:36;5.20;;;4.70;;
14092;SDS011;7123;49.468;10.992;2022-08-21T05:35:06;5.43;;;4.93;;
14092;SDS011;7123;49.468;10.992;2022-08-21T05:37:34;5.63;;;5.23;;
14092;SDS011;7123;49.468;10.992;2022-08-21T05:40:01;5.50;;;5.10;;
14092;SDS011;7123;49.468;10.992;2022-08-21T05:42:47;16.07;;;6.13;;
14092;SDS011;7123;49.468;10.992;2022-08-21T05:45:20;5.00;;;4.70;;
14092;SDS011;7123;49.468;10.992;2022-08-21T05:48:08;6.87;;;5.13;;
14092;SDS011;7123;49.468;10.992;2022-08-21T05:50:43;4.90;;;4.50;;
14092;SDS011;7123;49.468;10.992;2022-08-21T05:53:12;4.70;;;4.40;;
14092;SDS011;7123;49.468;10.992;2022-08-21T05:55:40;5.17;;;4.67;;
14092;SDS011;7123;49.468;10.992;2022-08-21T05:58:12;5.43;;;5.03;;
14092;SDS011;7123;49.468;10.992;2022-08-21T06:00:40;4.67;;;4.37;;
14092;SDS011;7123;49.468;10.992;2022-08-21T06:03:14;6.17;;;5.67;;
14092;SDS011;7123;49.468;10.992;2022-08-21T06:05:43;5.83;;;5.40;;
14092;SDS011;7123;49.468;10.992;2022-08-21T06:08:11;5.77;;;5.27;;
14092;SDS011;7123;49.468;10.992;2022-08-21T06:10:38;7.60;;;5.57;;
14092;SDS011;7123;49.468;10.992;2022-08-21T06:13:05;6.60;;;5.77;;
14092;SDS011;7123;49.468;10.992;2022-08-21T06:15:32;6.70;;;5.30;;
14092;SDS011;7123;49.468;10.992;2022-08-21T06:17:58;28.40;;;8.50;;
14092;SDS011;7123;49.468;10.992;2022-08-21T06:20:25;17.40;;;7.53;;
14092;SDS011;7123;49.468;10.992;2022-08-21T06:22:52;5.80;;;5.40;;
14092;SDS011;7123;49.468;10.992;2022-08-21T06:25:19;8.83;;;6.67;;
14092;SDS011;7123;49.468;10.992;2022-08-21T06:27:46;5.90;;;5.30;;
14092;SDS011;7123;49.468;10.992;2022-08-21T06:30:13;5.67;;;5.10;;
14092;SDS011;7123;49.468;10.992;2022-08-21T06:32:40;4.80;;;4.43;;
14092;SDS011;7123;49.468;10.992;2022-08-21T06:35:06;4.90;;;4.50;;
14092;SDS011;7123;49.468;10.992;2022-08-21T06:37:33;5.60;;;5.13;;
14092;SDS011;7123;49.468;10.992;2022-08-21T06:40:00;4.83;;;4.53;;
14092;SDS011;7123;49.468;10.992;2022-08-21T06:42:29;5.13;;;4.73;;
14092;SDS011;7123;49.468;10.992;2022-08-21T06:44:57;5.70;;;5.30;;
14092;SDS011;7123;49.468;10.992;2022-08-21T06:47:24;5.07;;;4.77;;
14092;SDS011;7123;49.468;10.992;2022-08-21T06:49:51;6.67;;;6.13;;
14092;SDS011;7123;49.468;10.992;2022-08-21T06:52:18;5.67;;;5.17;;
14092;SDS011;7123;49.468;10.992;2022-08-21T06:54:45;7.97;;;6.27;;
14092;SDS011;7123;49.468;10.992;2022-08-21T06:57:11;5.93;;;5.47;;
14092;SDS011;7123;49.468;10.992;2022-08-21T06:59:38;4.90;;;4.60;;
14092;SDS011;7123;49.468;10.992;2022-08-21T07:02:05;8.83;;;8.07;;
14092;SDS011;7123;49.468;10.992;2022-08-21T07:04:31;7.67;;;6.97;;
14092;SDS011;7123;49.468;10.992;2022-08-21T07:06:58;9.57;;;8.67;;
14092;SDS011;7123;49.468;10.992;2022-08-21T07:09:25;14.40;;;9.13;;
14092;SDS011;7123;49.468;10.992;2022-08-21T07:11:53;5.17;;;4.83;;
14092;SDS011;7123;49.468;10.992;2022-08-21T07:14:21;4.53;;;4.23;;
14092;SDS011;7123;49.468;10.992;2022-08-21T07:16:48;6.03;;;5.57;;
14092;SDS011;7123;49.468;10.992;2022-08-21T07:19:17;5.60;;;5.20;;
14092;SDS011;7123;49.468;10.992;2022-08-21T07:21:44;26.27;;;9.50;;
14092;SDS011;7123;49.468;10.992;2022-08-21T07:24:11;5.27;;;4.87;;
14092;SDS011;7123;49.468;10.992;2022-08-21T07:26:39;6.50;;;5.20;;
14092;SDS011;7123;49.468;10.992;2022-08-21T07:29:06;5.03;;;4.63;;
14092;SDS011;7123;49.468;10.992;2022-08-21T07:31:33;5.80;;;5.37;;
14092;SDS011;7123;49.468;10.992;2022-08-21T07:34:00;15.87;;;9.40;;
14092;SDS011;7123;49.468;10.992;2022-08-21T07:36:27;6.27;;;5.77;;
14092;SDS011;7123;49.468;10.992;2022-08-21T07:38:53;4.80;;;4.50;;
14092;SDS011;7123;49.468;10.992;2022-08-21T07:41:22;10.07;;;7.87;;
14092;SDS011;7123;49.468;10.992;2022-08-21T07:43:50;5.00;;;4.50;;
14092;SDS011;7123;49.468;10.992;2022-08-21T07:46:18;5.67;;;5.27;;
14092;SDS011;7123;49.468;10.992;2022-08-21T07:48:45;4.80;;;4.50;;
14092;SDS011;7123;49.468;10.992;2022-08-21T07:51:13;5.00;;;4.60;;
14092;SDS011;7123;49.468;10.992;2022-08-21T07:53:41;4.93;;;4.60;;
14092;SDS011;7123;49.468;10.992;2022-08-21T07:56:08;5.00;;;4.50;;
14092;SDS011;7123;49.468;10.992;2022-08-21T07:58:37;7.53;;;6.77;;
14092;SDS011;7123;49.468;10.992;2022-08-21T08:01:04;5.30;;;4.90;;
14092;SDS011;7123;49.468;10.992;2022-08-21T08:03:33;7.37;;;6.73;;
14092;SDS011;7123;49.468;10.992;2022-08-21T08:05:59;5.97;;;5.47;;
14092;SDS011;7123;49.468;10.992;2022-08-21T08:08:27;8.63;;;7.87;;
14092;SDS011;7123;49.468;10.992;2022-08-21T08:10:55;5.90;;;5.33;;
14092;SDS011;7123;49.468;10.992;2022-08-21T08:13:23;4.80;;;4.40;;
14092;SDS011;7123;49.468;10.992;2022-08-21T08:15:51;5.23;;;4.83;;
14092;SDS011;7123;49.468;10.992;2022-08-21T08:18:18;6.40;;;5.90;;
14092;SDS011;7123;49.468;10.992;2022-08-21T08:20:44;5.50;;;5.10;;
14092;SDS011;7123;49.468;10.992;2022-08-21T08:23:11;5.60;;;5.10;;
14092;SDS011;7123;49.468;10.992;2022-08-21T08:25:40;5.57;;;5.17;;
14092;SDS011;7123;49.468;10.992;2022-08-21T08:28:07;6.43;;;5.93;;
14092;SDS011;7123;49.468;10.992;2022-08-21T08:30:42;6.77;;;6.27;;
14092;SDS011;7123;49.468;10.992;2022-08-21T08:33:10;10.37;;;9.47;;
14092;SDS011;7123;49.468;10.992;2022-08-21T08:35:37;6.07;;;5.67;;
14092;SDS011;7123;49.468;10.992;2022-08-21T08:38:04;6.47;;;5.87;;
14092;SDS011;7123;49.468;10.992;2022-08-21T08:43:08;5.57;;;5.17;;
14092;SDS011;7123;49.468;10.992;2022-08-21T08:45:41;6.67;;;6.17;;
14092;SDS011;7123;49.468;10.992;2022-08-21T08:48:13;9.60;;;8.80;;
14092;SDS011;7123;49.468;10.992;2022-08-21T08:50:57;11.13;;;10.13;;
14092;SDS011;7123;49.468;10.992;2022-08-21T08:53:31;6.87;;;6.20;;
14092;SDS011;7123;49.468;10.992;2022-08-21T08:56:01;11.47;;;10.47;;
14092;SDS011;7123;49.468;10.992;2022-08-21T08:58:31;10.33;;;9.47;;
14092;SDS011;7123;49.468;10.992;2022-08-21T09:01:03;7.23;;;6.53;;
14092;SDS011;7123;49.468;10.992;2022-08-21T09:03:36;7.13;;;6.53;;
14092;SDS011;7123;49.468;10.992;2022-08-21T09:11:59;5.93;;;5.53;;
14092;SDS011;7123;49.468;10.992;2022-08-21T09:20:07;5.20;;;4.90;;
14092;SDS011;7123;49.468;10.992;2022-08-21T09:25:23;9.47;;;7.33;;
14092;SDS011;7123;49.468;10.992;2022-08-21T09:27:52;6.30;;;5.80;;
14092;SDS011;7123;49.468;10.992;2022-08-21T09:30:23;5.95;;;5.50;;
14092;SDS011;7123;49.468;10.992;2022-08-21T09:32:55;6.60;;;6.00;;
14092;SDS011;7123;49.468;10.992;2022-08-21T09:35:23;6.53;;;6.03;;
14092;SDS011;7123;49.468;10.992;2022-08-21T09:37:58;10.60;;;9.60;;
14092;SDS011;7123;49.468;10.992;2022-08-21T09:45:30;8.80;;;8.10;;
14092;SDS011;7123;49.468;10.992;2022-08-21T09:48:19;10.40;;;9.45;;
14092;SDS011;7123;49.468;10.992;2022-08-21T09:50:52;7.50;;;6.88;;
14092;SDS011;7123;49.468;10.992;2022-08-21T09:53:20;6.45;;;6.05;;
14092;SDS011;7123;49.468;10.992;2022-08-21T09:56:04;6.13;;;5.53;;
14092;SDS011;7123;49.468;10.992;2022-08-21T09:59:00;7.15;;;6.63;;
14092;SDS011;7123;49.468;10.992;2022-08-21T10:01:27;6.70;;;6.20;;
14092;SDS011;7123;49.468;10.992;2022-08-21T10:04:12;7.32;;;6.72;;
14092;SDS011;7123;49.468;10.992;2022-08-21T10:06:40;8.17;;;7.37;;
14092;SDS011;7123;49.468;10.992;2022-08-21T10:09:14;6.78;;;6.28;;
14092;SDS011;7123;49.468;10.992;2022-08-21T10:12:06;6.30;;;5.90;;
14092;SDS011;7123;49.468;10.992;2022-08-21T10:17:40;6.73;;;6.13;;
14092;SDS011;7123;49.468;10.992;2022-08-21T10:34:38;6.03;;;5.47;;
14092;SDS011;7123;49.468;10.992;2022-08-21T10:36:47;5.00;;;4.50;;
14092;SDS011;7123;49.468;10.992;2022-08-21T10:45:26;7.90;;;6.93;;
14092;SDS011;7123;49.468;10.992;2022-08-21T10:48:05;9.47;;;8.67;;
14092;SDS011;7123;49.468;10.992;2022-08-21T10:56:32;6.45;;;5.95;;
14092;SDS011;7123;49.468;10.992;2022-08-21T11:05:14;6.88;;;6.38;;
14092;SDS011;7123;49.468;10.992;2022-08-21T11:07:52;6.25;;;5.65;;
14092;SDS011;7123;49.468;10.992;2022-08-21T11:10:25;8.93;;;8.23;;
14092;SDS011;7123;49.468;10.992;2022-08-21T11:13:08;6.67;;;6.17;;
14092;SDS011;7123;49.468;10.992;2022-08-21T11:15:44;8.33;;;7.70;;
14092;SDS011;7123;49.468;10.992;2022-08-21T11:18:27;8.02;;;7.32;;
14092;SDS011;7123;49.468;10.992;2022-08-21T11:23:53;9.88;;;6.28;;
14092;SDS011;7123;49.468;10.992;2022-08-21T11:26:44;7.50;;;7.00;;
14092;SDS011;7123;49.468;10.992;2022-08-21T11:29:28;6.55;;;6.07;;
14092;SDS011;7123;49.468;10.992;2022-08-21T11:32:12;6.90;;;6.30;;
14092;SDS011;7123;49.468;10.992;2022-08-21T11:35:10;7.03;;;6.10;;
14092;SDS011;7123;49.468;10.992;2022-08-21T11:51:31;5.13;;;4.82;;
14092;SDS011;7123;49.468;10.992;2022-08-21T11:54:20;6.00;;;5.57;;
14092;SDS011;7123;49.468;10.992;2022-08-21T11:57:00;6.40;;;5.90;;
14092;SDS011;7123;49.468;10.992;2022-08-21T11:59:34;5.95;;;5.55;;
14092;SDS011;7123;49.468;10.992;2022-08-21T12:02:09;7.63;;;6.33;;
14092;SDS011;7123;49.468;10.992;2022-08-21T12:04:48;5.97;;;5.57;;
14092;SDS011;7123;49.468;10.992;2022-08-21T12:10:31;5.07;;;4.75;;
14092;SDS011;7123;49.468;10.992;2022-08-21T12:13:21;4.93;;;4.53;;
14092;SDS011;7123;49.468;10.992;2022-08-21T12:16:08;5.73;;;5.00;;
14092;SDS011;7123;49.468;10.992;2022-08-21T12:18:40;4.63;;;4.32;;
14092;SDS011;7123;49.468;10.992;2022-08-21T12:21:27;4.77;;;4.47;;
14092;SDS011;7123;49.468;10.992;2022-08-21T12:26:48;4.55;;;4.20;;
14092;SDS011;7123;49.468;10.992;2022-08-21T12:29:27;4.50;;;4.20;;
14092;SDS011;7123;49.468;10.992;2022-08-21T12:32:18;4.63;;;4.22;;
14092;SDS011;7123;49.468;10.992;2022-08-21T12:34:54;4.40;;;4.10;;
14092;SDS011;7123;49.468;10.992;2022-08-21T12:40:00;4.15;;;3.85;;
14092;SDS011;7123;49.468;10.992;2022-08-21T12:42:39;4.20;;;3.97;;
14092;SDS011;7123;49.468;10.992;2022-08-21T12:45:27;4.63;;;4.10;;
14092;SDS011;7123;49.468;10.992;2022-08-21T12:48:01;4.28;;;3.97;;
14092;SDS011;7123;49.468;10.992;2022-08-21T12:50:40;4.78;;;4.47;;
14092;SDS011;7123;49.468;10.992;2022-08-21T12:55:56;5.30;;;4.90;;
14092;SDS011;7123;49.468;10.992;2022-08-21T12:58:27;4.20;;;4.00;;
14092;SDS011;7123;49.468;10.992;2022-08-21T13:00:56;5.60;;;5.20;;
14092;SDS011;7123;49.468;10.992;2022-08-21T13:03:30;4.80;;;4.45;;
14092;SDS011;7123;49.468;10.992;2022-08-21T13:06:01;4.70;;;4.40;;
14092;SDS011;7123;49.468;10.992;2022-08-21T13:08:30;5.38;;;4.88;;
14092;SDS011;7123;49.468;10.992;2022-08-21T13:11:06;4.90;;;4.60;;
14092;SDS011;7123;49.468;10.992;2022-08-21T13:13:40;4.82;;;4.53;;
14092;SDS011;7123;49.468;10.992;2022-08-21T13:16:18;4.28;;;4.07;;
14092;SDS011;7123;49.468;10.992;2022-08-21T13:19:04;4.60;;;4.20;;
14092;SDS011;7123;49.468;10.992;2022-08-21T13:21:33;4.00;;;3.70;;
14092;SDS011;7123;49.468;10.992;2022-08-21T13:24:19;5.13;;;4.00;;
14092;SDS011;7123;49.468;10.992;2022-08-21T13:27:22;4.28;;;3.97;;
14092;SDS011;7123;49.468;10.992;2022-08-21T13:30:11;4.10;;;3.80;;
14092;SDS011;7123;49.468;10.992;2022-08-21T13:32:48;4.72;;;4.40;;
14092;SDS011;7123;49.468;10.992;2022-08-21T13:35:19;4.53;;;4.18;;
14092;SDS011;7123;49.468;10.992;2022-08-21T13:37:52;3.95;;;3.75;;
14092;SDS011;7123;49.468;10.992;2022-08-21T13:40:23;3.88;;;3.58;;
14092;SDS011;7123;49.468;10.992;2022-08-21T13:42:51;4.20;;;3.90;;
14092;SDS011;7123;49.468;10.992;2022-08-21T13:45:24;4.00;;;3.70;;
14092;SDS011;7123;49.468;10.992;2022-08-21T13:47:53;4.00;;;3.80;;
14092;SDS011;7123;49.468;10.992;2022-08-21T13:50:21;4.10;;;3.90;;
14092;SDS011;7123;49.468;10.992;2022-08-21T13:53:36;4.13;;;3.88;;
14092;SDS011;7123;49.468;10.992;2022-08-21T13:56:21;4.30;;;3.78;;
14092;SDS011;7123;49.468;10.992;2022-08-21T13:58:53;3.72;;;3.53;;
14092;SDS011;7123;49.468;10.992;2022-08-21T14:03:52;4.07;;;3.78;;
14092;SDS011;7123;49.468;10.992;2022-08-21T14:06:24;4.38;;;4.00;;
14092;SDS011;7123;49.468;10.992;2022-08-21T14:08:55;4.53;;;4.22;;
14092;SDS011;7123;49.468;10.992;2022-08-21T14:11:25;4.40;;;4.05;;
14092;SDS011;7123;49.468;10.992;2022-08-21T14:13:59;4.32;;;4.03;;
14092;SDS011;7123;49.468;10.992;2022-08-21T14:16:44;3.45;;;3.25;;
14092;SDS011;7123;49.468;10.992;2022-08-21T14:19:21;3.78;;;3.47;;
14092;SDS011;7123;49.468;10.992;2022-08-21T14:21:49;3.80;;;3.50;;
14092;SDS011;7123;49.468;10.992;2022-08-21T14:26:53;3.53;;;3.30;;
14092;SDS011;7123;49.468;10.992;2022-08-21T14:29:22;3.88;;;3.58;;
14092;SDS011;7123;49.468;10.992;2022-08-21T14:31:56;3.67;;;3.38;;
14092;SDS011;7123;49.468;10.992;2022-08-21T14:34:26;3.50;;;3.30;;
14092;SDS011;7123;49.468;10.992;2022-08-21T14:37:00;3.90;;;3.60;;
14092;SDS011;7123;49.468;10.992;2022-08-21T14:39:27;3.30;;;3.10;;
14092;SDS011;7123;49.468;10.992;2022-08-21T14:41:54;4.05;;;3.20;;
14092;SDS011;7123;49.468;10.992;2022-08-21T14:44:23;3.28;;;3.03;;
14092;SDS011;7123;49.468;10.992;2022-08-21T14:46:50;3.72;;;3.45;;
14092;SDS011;7123;49.468;10.992;2022-08-21T14:49:22;3.15;;;2.95;;
14092;SDS011;7123;49.468;10.992;2022-08-21T14:51:52;3.15;;;2.95;;
14092;SDS011;7123;49.468;10.992;2022-08-21T14:54:24;3.22;;;2.95;;
14092;SDS011;7123;49.468;10.992;2022-08-21T14:56:58;3.45;;;3.13;;
14092;SDS011;7123;49.468;10.992;2022-08-21T14:59:31;3.55;;;3.25;;
14092;SDS011;7123;49.468;10.992;2022-08-21T15:01:59;3.30;;;3.10;;
14092;SDS011;7123;49.468;10.992;2022-08-21T15:04:26;3.28;;;3.08;;
14092;SDS011;7123;49.468;10.992;2022-08-21T15:06:53;2.95;;;2.55;;
14092;SDS011;7123;49.468;10.992;2022-08-21T15:09:20;2.97;;;2.83;;
14092;SDS011;7123;49.468;10.992;2022-08-21T15:11:47;3.15;;;2.95;;
14092;SDS011;7123;49.468;10.992;2022-08-21T15:14:17;3.47;;;3.17;;
14092;SDS011;7123;49.468;10.992;2022-08-21T15:16:47;4.30;;;3.15;;
14092;SDS011;7123;49.468;10.992;2022-08-21T15:19:14;2.95;;;2.85;;
14092;SDS011;7123;49.468;10.992;2022-08-21T15:21:41;3.10;;;2.90;;
14092;SDS011;7123;49.468;10.992;2022-08-21T15:24:08;3.40;;;3.10;;
14092;SDS011;7123;49.468;10.992;2022-08-21T15:26:34;3.25;;;3.00;;
14092;SDS011;7123;49.468;10.992;2022-08-21T15:29:02;3.30;;;3.10;;
14092;SDS011;7123;49.468;10.992;2022-08-21T15:31:32;3.42;;;3.13;;
14092;SDS011;7123;49.468;10.992;2022-08-21T15:33:58;2.70;;;2.50;;
14092;SDS011;7123;49.468;10.992;2022-08-21T15:36:25;3.03;;;2.70;;
14092;SDS011;7123;49.468;10.992;2022-08-21T15:38:52;3.28;;;3.08;;
14092;SDS011;7123;49.468;10.992;2022-08-21T15:41:19;3.13;;;2.90;;
14092;SDS011;7123;49.468;10.992;2022-08-21T15:43:46;3.38;;;3.10;;
14092;SDS011;7123;49.468;10.992;2022-08-21T15:46:16;3.10;;;2.80;;
14092;SDS011;7123;49.468;10.992;2022-08-21T15:48:45;4.63;;;3.10;;
14092;SDS011;7123;49.468;10.992;2022-08-21T15:51:12;5.40;;;3.05;;
14092;SDS011;7123;49.468;10.992;2022-08-21T15:53:40;3.20;;;3.00;;
14092;SDS011;7123;49.468;10.992;2022-08-21T15:56:21;4.22;;;3.13;;
14092;SDS011;7123;49.468;10.992;2022-08-21T15:58:50;3.00;;;2.80;;
14092;SDS011;7123;49.468;10.992;2022-08-21T16:01:19;3.08;;;2.78;;
14092;SDS011;7123;49.468;10.992;2022-08-21T16:03:48;3.28;;;3.08;;
14092;SDS011;7123;49.468;10.992;2022-08-21T16:06:16;2.70;;;2.60;;
14092;SDS011;7123;49.468;10.992;2022-08-21T16:09:03;3.03;;;2.83;;
14092;SDS011;7123;49.468;10.992;2022-08-21T16:11:29;3.55;;;3.20;;
14092;SDS011;7123;49.468;10.992;2022-08-21T16:13:57;3.22;;;2.97;;
14092;SDS011;7123;49.468;10.992;2022-08-21T16:16:23;3.10;;;2.90;;
14092;SDS011;7123;49.468;10.992;2022-08-21T16:18:50;3.33;;;3.05;;
14092;SDS011;7123;49.468;10.992;2022-08-21T16:21:20;3.08;;;2.88;;
14092;SDS011;7123;49.468;10.992;2022-08-21T16:23:46;2.80;;;2.60;;
14092;SDS011;7123;49.468;10.992;2022-08-21T16:26:13;2.88;;;2.67;;
14092;SDS011;7123;49.468;10.992;2022-08-21T16:28:43;2.80;;;2.60;;
14092;SDS011;7123;49.468;10.992;2022-08-21T16:31:13;2.67;;;2.53;;
14092;SDS011;7123;49.468;10.992;2022-08-21T16:33:45;3.13;;;2.60;;
14092;SDS011;7123;49.468;10.992;2022-08-21T16:36:22;3.00;;;2.80;;
14092;SDS011;7123;49.468;10.992;2022-08-21T16:38:51;2.83;;;2.63;;
14092;SDS011;7123;49.468;10.992;2022-08-21T16:41:20;2.80;;;2.60;;